Time;durP1;ratioP1;P1;durP2;ratioP2;P2;SDS_P1;SDS_P2;PMS_P1;PMS_P2;Temp;Humidity;BMP_temperature;BMP_pressure;BME280_temperature;BME280_humidity;BME280_pressure;Samples;Min_cycle;Max_cycle;Signal;HPM_P1;HPM_P2
2021/06/11 00:00:09;;;;;;;8.93;4.00;;;;;;;18.45;71.41;100606.75;5015153;28;20398;-74
2021/06/11 00:02:36;;;;;;;4.88;3.50;;;;;;;18.37;71.62;100609.25;5015272;28;20058;-74
2021/06/11 00:05:04;;;;;;;5.57;3.60;;;;;;;18.36;72.03;100618.38;5015241;28;20520;-74
2021/06/11 00:07:31;;;;;;;6.75;4.43;;;;;;;18.38;71.43;100598.31;5015508;28;20045;-74
2021/06/11 00:09:57;;;;;;;8.65;4.55;;;;;;;18.30;72.04;100603.56;5015317;28;20061;-75
2021/06/11 00:12:24;;;;;;;7.13;4.32;;;;;;;18.25;72.48;100614.72;5019156;28;20061;-74
2021/06/11 00:14:51;;;;;;;6.43;3.83;;;;;;;18.26;72.68;100605.63;5019054;28;20343;-75
2021/06/11 00:17:17;;;;;;;8.90;4.47;;;;;;;18.21;72.72;100617.84;5019302;28;20115;-75
2021/06/11 00:19:44;;;;;;;9.25;4.38;;;;;;;18.18;72.88;100605.44;5028521;28;20057;-75
2021/06/11 00:22:10;;;;;;;9.07;4.90;;;;;;;18.15;72.94;100611.97;5039242;28;20050;-75
2021/06/11 00:24:38;;;;;;;5.80;4.65;;;;;;;18.16;73.08;100607.44;5038724;28;20083;-75
2021/06/11 00:27:06;;;;;;;8.88;5.03;;;;;;;18.18;72.74;100608.16;5037588;28;20104;-76
2021/06/11 00:29:32;;;;;;;8.98;5.13;;;;;;;18.06;73.09;100601.97;5038522;28;20320;-74
2021/06/11 00:31:59;;;;;;;7.35;5.00;;;;;;;18.13;72.79;100602.28;5037221;28;20083;-75
2021/06/11 00:34:26;;;;;;;8.45;5.25;;;;;;;18.06;73.25;100601.97;5038514;28;20053;-75
2021/06/11 00:36:53;;;;;;;9.57;5.35;;;;;;;18.02;73.76;100609.44;5037623;28;20331;-74
2021/06/11 00:39:20;;;;;;;12.85;5.25;;;;;;;17.99;73.72;100601.63;5038702;28;20099;-75
2021/06/11 00:41:46;;;;;;;7.53;5.60;;;;;;;17.96;73.93;100607.25;5037449;28;20068;-75
2021/06/11 00:44:13;;;;;;;10.68;5.40;;;;;;;18.01;74.26;100606.88;5037313;28;20056;-75
2021/06/11 00:46:40;;;;;;;5.95;5.30;;;;;;;17.93;74.30;100599.44;5038554;28;20057;-75
2021/06/11 00:49:07;;;;;;;11.70;5.60;;;;;;;17.94;74.46;100597.59;5038353;28;20099;-75
2021/06/11 00:51:35;;;;;;;8.40;5.53;;;;;;;17.83;74.64;100590.41;5038292;28;20123;-74
2021/06/11 00:54:02;;;;;;;11.43;5.80;;;;;;;17.86;74.47;100600.97;5021181;28;20053;-74
2021/06/11 00:56:29;;;;;;;10.18;6.45;;;;;;;17.84;74.55;100603.78;5038193;28;20351;-75
2021/06/11 00:58:55;;;;;;;8.27;6.40;;;;;;;17.82;74.81;100604.88;5038142;28;20057;-75
2021/06/11 01:01:22;;;;;;;8.27;5.90;;;;;;;17.73;75.34;100603.81;5038357;28;20050;-74
2021/06/11 01:03:49;;;;;;;11.05;6.82;;;;;;;17.71;75.78;100605.81;5038370;28;20137;-74
2021/06/11 01:06:16;;;;;;;9.70;6.07;;;;;;;17.67;75.59;100602.50;5038207;28;20107;-75
2021/06/11 01:08:42;;;;;;;10.15;6.20;;;;;;;17.72;75.46;100604.81;5036910;28;20473;-75
2021/06/11 01:11:12;;;;;;;9.75;6.13;;;;;;;17.63;76.00;100603.75;5036700;28;20053;-75
2021/06/11 01:13:40;;;;;;;8.48;6.25;;;;;;;17.62;76.56;100611.00;5037909;28;20587;-75
2021/06/11 01:16:07;;;;;;;8.48;6.45;;;;;;;17.64;76.39;100609.00;5036891;28;20057;-74
2021/06/11 01:18:34;;;;;;;13.25;7.13;;;;;;;17.54;76.88;100610.75;5038162;28;20046;-75
2021/06/11 01:21:01;;;;;;;11.25;7.80;;;;;;;17.50;76.98;100617.41;5016462;28;20050;-75
2021/06/11 01:23:38;;;;;;;15.02;7.90;;;;;;;17.44;77.65;100618.75;5018091;28;20104;-73
2021/06/11 01:26:10;;;;;;;9.65;7.43;;;;;;;17.40;77.75;100619.16;5018095;28;20057;-75
2021/06/11 01:28:38;;;;;;;11.45;8.30;;;;;;;17.37;77.77;100613.03;5018194;28;20053;-75
2021/06/11 01:31:07;;;;;;;10.35;7.90;;;;;;;17.46;77.42;100619.50;5017801;28;20115;-74
2021/06/11 01:33:35;;;;;;;12.77;8.75;;;;;;;17.47;77.69;100618.53;5016837;28;20101;-75
2021/06/11 01:36:10;;;;;;;11.68;8.65;;;;;;;17.43;77.72;100610.81;5016443;28;20053;-74
2021/06/11 01:38:43;;;;;;;11.05;7.85;;;;;;;17.38;78.20;100624.69;5016951;28;20057;-76
2021/06/11 01:41:15;;;;;;;14.35;8.02;;;;;;;17.33;78.56;100613.41;5016614;28;20052;-75
2021/06/11 01:43:43;;;;;;;12.05;7.60;;;;;;;17.27;78.38;100613.91;5016697;28;20092;-75
2021/06/11 01:46:12;;;;;;;11.77;8.82;;;;;;;17.24;78.65;100612.34;5016502;28;20050;-74
2021/06/11 01:48:41;;;;;;;10.65;8.35;;;;;;;17.17;78.73;100614.66;5016334;28;20430;-74
2021/06/11 01:51:10;;;;;;;11.35;7.82;;;;;;;17.21;78.67;100623.38;5016596;28;20042;-75
2021/06/11 01:53:38;;;;;;;12.02;8.43;;;;;;;17.24;78.78;100626.69;5016470;28;20112;-75
2021/06/11 01:56:06;;;;;;;13.65;7.82;;;;;;;17.09;79.30;100622.53;5016258;28;20054;-74
2021/06/11 01:58:34;;;;;;;8.63;7.72;;;;;;;17.16;78.83;100626.44;5016429;28;20057;-75
2021/06/11 02:01:01;;;;;;;11.90;8.82;;;;;;;17.17;78.93;100627.31;5016219;28;20045;-75
2021/06/11 02:03:28;;;;;;;10.73;8.30;;;;;;;17.04;79.27;100622.03;5016074;28;20104;-75
2021/06/11 02:05:55;;;;;;;17.88;8.82;;;;;;;17.10;79.23;100625.09;5016170;28;20054;-74
2021/06/11 02:08:23;;;;;;;13.93;8.60;;;;;;;17.15;79.56;100629.28;5014948;28;20108;-75
2021/06/11 02:10:50;;;;;;;11.25;9.20;;;;;;;17.11;79.21;100615.19;5014927;28;20092;-75
2021/06/11 02:13:17;;;;;;;10.23;8.35;;;;;;;17.11;79.38;100620.59;5015987;28;20116;-75
2021/06/11 02:15:45;;;;;;;9.80;8.50;;;;;;;17.10;79.78;100619.72;5016217;28;20053;-74
2021/06/11 02:18:12;;;;;;;11.43;8.68;;;;;;;17.00;79.75;100618.69;5015983;28;20049;-74
2021/06/11 02:20:40;;;;;;;13.50;9.02;;;;;;;16.97;80.27;100619.84;5015947;28;20046;-75
2021/06/11 02:23:06;;;;;;;12.90;8.32;;;;;;;16.97;80.24;100616.25;5015850;28;20046;-75
2021/06/11 02:25:33;;;;;;;12.73;8.43;;;;;;;16.96;80.31;100618.09;5014769;28;20046;-74
2021/06/11 02:28:01;;;;;;;12.68;8.38;;;;;;;16.89;80.31;100603.38;5015794;28;20054;-75
2021/06/11 02:30:27;;;;;;;10.95;7.90;;;;;;;16.99;80.15;100613.44;5015881;28;20056;-75
2021/06/11 02:32:54;;;;;;;10.57;8.65;;;;;;;16.88;80.95;100620.56;5011208;28;115241;-74
2021/06/11 02:35:25;;;;;;;10.27;8.50;;;;;;;16.88;80.70;100617.84;5016878;28;20204;-75
2021/06/11 02:37:55;;;;;;;10.48;8.15;;;;;;;16.83;81.20;100610.16;5016708;28;20088;-75
2021/06/11 02:40:22;;;;;;;13.50;8.43;;;;;;;16.69;81.09;100586.16;5016597;28;20052;-75
2021/06/11 02:42:54;;;;;;;12.68;8.82;;;;;;;16.87;80.65;100610.75;5016438;28;20414;-75
2021/06/11 02:45:30;;;;;;;10.80;8.63;;;;;;;16.88;80.70;100612.47;5016441;28;20058;-74
2021/06/11 02:48:17;;;;;;;10.32;7.93;;;;;;;16.76;81.57;100605.38;5015541;28;20100;-75
2021/06/11 02:50:55;;;;;;;11.60;7.90;;;;;;;16.73;81.70;100613.72;5015381;28;20053;-75
2021/06/11 02:53:26;;;;;;;10.38;7.80;;;;;;;16.73;82.19;100602.94;5016136;28;20046;-75
2021/06/11 02:56:03;;;;;;;11.15;8.07;;;;;;;16.66;82.11;100597.16;5015379;28;20137;-75
2021/06/11 02:58:42;;;;;;;12.48;8.48;;;;;;;16.62;82.21;100601.94;5016334;28;20053;-74
2021/06/11 03:01:11;;;;;;;9.00;8.10;;;;;;;16.65;82.61;100599.00;5016104;28;20435;-74
2021/06/11 03:03:39;;;;;;;13.18;8.30;;;;;;;16.74;82.15;100597.41;5017079;28;20046;-75
2021/06/11 03:06:08;;;;;;;13.00;8.40;;;;;;;16.74;82.06;100591.16;5016902;28;20058;-74
2021/06/11 03:08:38;;;;;;;9.23;8.32;;;;;;;16.82;82.17;100604.88;5015058;28;20057;-74
2021/06/11 03:11:09;;;;;;;10.15;8.10;;;;;;;16.83;81.84;100603.88;5015926;28;20501;-73
2021/06/11 03:13:37;;;;;;;11.02;8.43;;;;;;;16.83;81.84;100601.19;5016036;28;20053;-78
2021/06/11 03:16:04;;;;;;;10.07;7.93;;;;;;;16.78;82.22;100596.19;5015694;28;20489;-74
2021/06/11 03:18:44;;;;;;;10.70;7.75;;;;;;;16.79;82.15;100597.88;5016245;28;20108;-74
2021/06/11 03:21:18;;;;;;;10.60;8.63;;;;;;;16.79;82.34;100600.59;5016098;28;20053;-73
2021/06/11 03:24:03;;;;;;;11.15;8.05;;;;;;;16.67;82.38;100580.88;5015839;28;20112;-75
2021/06/11 03:26:41;;;;;;;11.05;7.65;;;;;;;16.58;82.97;100589.69;5015679;28;20104;-74
2021/06/11 03:29:11;;;;;;;13.52;8.82;;;;;;;16.61;83.13;100597.53;5015963;28;20054;-75
2021/06/11 03:31:45;;;;;;;16.50;9.65;;;;;;;16.66;82.74;100600.72;5015887;28;20049;-73
2021/06/11 03:34:18;;;;;;;11.65;9.07;;;;;;;16.61;83.05;100600.22;5015387;28;20050;-74
2021/06/11 03:36:45;;;;;;;12.15;9.00;;;;;;;16.54;83.06;100604.38;5015696;28;20073;-74
2021/06/11 03:39:18;;;;;;;13.27;9.20;;;;;;;16.53;83.22;100602.69;5015605;28;20118;-74
2021/06/11 03:41:46;;;;;;;11.18;9.07;;;;;;;16.53;83.00;100602.69;5015735;28;20041;-74
2021/06/11 03:44:14;;;;;;;14.38;9.60;;;;;;;16.47;83.40;100597.78;5015555;28;20100;-74
2021/06/11 03:46:44;;;;;;;14.45;9.07;;;;;;;16.50;83.61;100603.78;5014351;28;20054;-74
2021/06/11 03:49:12;;;;;;;;;;;;;;;16.55;83.55;100600.72;5015903;28;20136;-75
2021/06/11 03:51:40;;;;;;;10.60;9.50;;;;;;;16.54;83.64;100599.00;5014239;28;20469;-75
2021/06/11 03:54:08;;;;;;;11.57;9.30;;;;;;;16.62;83.51;100598.41;5014410;28;20104;-74
2021/06/11 03:56:39;;;;;;;13.38;9.73;;;;;;;16.59;83.58;100599.50;5014318;28;20045;-74
2021/06/11 03:59:11;;;;;;;12.32;9.70;;;;;;;16.53;83.92;100603.56;5015660;28;20050;-74
2021/06/11 04:01:47;;;;;;;14.50;10.32;;;;;;;16.58;83.70;100595.09;5015197;28;20084;-77
2021/06/11 04:04:15;;;;;;;13.70;9.45;;;;;;;16.61;83.88;100599.38;5015418;28;20129;-75
2021/06/11 04:07:37;;;;;;;13.82;10.32;;;;;;;16.55;84.01;100589.94;5015640;28;20387;-75
2021/06/11 04:10:08;;;;;;;15.43;10.82;;;;;;;16.59;84.09;100596.81;5012953;28;20407;-74
2021/06/11 04:12:51;;;;;;;14.63;10.25;;;;;;;16.65;84.02;100593.63;5013406;28;20053;-75
2021/06/11 04:15:19;;;;;;;11.45;10.30;;;;;;;16.66;83.95;100592.63;5015388;28;20054;-75
2021/06/11 04:17:50;;;;;;;13.82;10.10;;;;;;;16.64;83.93;100591.91;5015269;28;20046;-74
2021/06/11 04:20:23;;;;;;;12.05;10.23;;;;;;;16.72;83.99;100603.91;5028181;28;20073;-73
2021/06/11 04:22:53;;;;;;;11.68;10.40;;;;;;;16.68;83.83;100598.75;5033719;28;20055;-74
2021/06/11 04:25:21;;;;;;;13.87;10.50;;;;;;;16.69;83.74;100603.16;5035042;28;20111;-74
2021/06/11 04:27:53;;;;;;;16.35;10.48;;;;;;;16.63;83.86;100587.50;5035125;28;20454;-75
2021/06/11 04:30:21;;;;;;;13.13;10.65;;;;;;;16.70;83.80;100590.56;5034677;28;20224;-75
2021/06/11 04:32:48;;;;;;;11.55;10.05;;;;;;;16.66;84.11;100595.31;5033431;28;20399;-74
2021/06/11 04:35:21;;;;;;;11.98;9.95;;;;;;;16.77;83.69;100597.16;5034623;28;20088;-74
2021/06/11 04:37:47;;;;;;;15.65;10.25;;;;;;;16.72;83.85;100583.19;5034952;28;20061;-76
2021/06/11 04:40:15;;;;;;;16.23;9.77;;;;;;;16.79;83.69;100580.88;5033543;28;20075;-74
2021/06/11 04:42:43;;;;;;;12.55;9.30;;;;;;;16.82;83.43;100578.78;5033719;28;20049;-76
2021/06/11 04:45:11;;;;;;;13.93;10.65;;;;;;;16.77;83.61;100562.13;5034528;28;20053;-76
2021/06/11 04:47:39;;;;;;;15.48;10.48;;;;;;;16.80;83.74;100559.19;5034582;28;20054;-75
2021/06/11 04:50:07;;;;;;;16.67;9.63;;;;;;;16.91;83.41;100568.22;5034329;28;20064;-76
2021/06/11 04:52:34;;;;;;;14.43;10.07;;;;;;;16.85;83.27;100550.72;5033692;28;20045;-76
2021/06/11 04:55:00;;;;;;;15.90;10.15;;;;;;;16.96;82.75;100550.69;5034610;28;20056;-76
2021/06/11 04:57:27;;;;;;;11.52;9.85;;;;;;;16.99;83.03;100562.22;5035909;28;20049;-76
2021/06/11 04:59:53;;;;;;;20.30;9.80;;;;;;;17.03;83.19;100561.00;5037204;28;20076;-75
2021/06/11 05:02:20;;;;;;;15.50;9.90;;;;;;;17.05;82.97;100554.50;5038082;28;20103;-77
2021/06/11 05:04:47;;;;;;;13.98;10.32;;;;;;;17.23;82.35;100556.66;5037961;28;20057;-76
2021/06/11 05:07:13;;;;;;;13.73;10.25;;;;;;;17.24;81.99;100551.16;5020612;28;20049;-75
2021/06/11 05:09:40;;;;;;;16.10;9.68;;;;;;;17.27;81.92;100562.66;5037811;28;20379;-76
2021/06/11 05:12:07;;;;;;;17.88;9.75;;;;;;;17.24;81.94;100552.97;5037980;28;20054;-77
2021/06/11 05:14:34;;;;;;;15.15;10.20;;;;;;;17.34;81.76;100553.91;5036989;28;20064;-76
2021/06/11 05:17:02;;;;;;;12.48;9.75;;;;;;;17.45;81.19;100553.03;5036815;28;20053;-75
2021/06/11 05:19:29;;;;;;;16.10;10.85;;;;;;;17.47;81.27;100545.66;5037539;28;20144;-74
2021/06/11 05:21:56;;;;;;;17.30;9.23;;;;;;;17.49;81.17;100545.53;5037990;28;20054;-75
2021/06/11 05:24:22;;;;;;;17.15;9.93;;;;;;;17.49;81.26;100546.38;5037665;28;20389;-76
2021/06/11 05:26:49;;;;;;;21.63;11.35;;;;;;;17.49;81.19;100538.28;5037600;28;20398;-75
2021/06/11 05:29:16;;;;;;;15.52;10.15;;;;;;;17.49;81.41;100556.34;5037669;28;20423;-76
2021/06/11 05:31:42;;;;;;;20.25;10.95;;;;;;;17.54;81.59;100564.03;5037166;28;20430;-75
2021/06/11 05:34:10;;;;;;;15.25;10.43;;;;;;;17.58;81.56;100549.28;5036420;28;20402;-76
2021/06/11 05:36:37;;;;;;;17.83;10.27;;;;;;;17.68;81.09;100561.03;5037485;28;20049;-74
2021/06/11 05:39:04;;;;;;;15.70;9.90;;;;;;;17.75;80.38;100567.63;5037429;28;20435;-74
2021/06/11 05:41:31;;;;;;;17.30;10.45;;;;;;;17.74;80.81;100559.63;5037213;28;20450;-75
2021/06/11 05:43:58;;;;;;;16.02;11.35;;;;;;;17.77;80.77;100559.38;5020033;28;20390;-74
2021/06/11 05:46:26;;;;;;;19.10;10.85;;;;;;;17.87;80.08;100554.91;5037479;28;20145;-74
2021/06/11 05:48:52;;;;;;;14.15;10.35;;;;;;;17.86;80.40;100558.59;5037450;28;20045;-74
2021/06/11 05:51:19;;;;;;;19.38;10.52;;;;;;;17.90;79.93;100560.06;5036282;28;20076;-74
2021/06/11 05:53:47;;;;;;;20.35;11.23;;;;;;;17.95;80.06;100570.44;5036382;28;20390;-75
2021/06/11 05:56:13;;;;;;;16.73;10.93;;;;;;;17.96;79.78;100564.06;5037336;28;20140;-75
2021/06/11 05:58:40;;;;;;;14.55;9.95;;;;;;;17.99;80.00;100566.50;5036035;28;20443;-75
2021/06/11 06:01:07;;;;;;;18.35;10.63;;;;;;;17.98;79.89;100564.78;5036756;28;20061;-81
2021/06/11 06:03:34;;;;;;;20.83;11.43;;;;;;;18.08;79.53;100577.53;5030366;28;20050;-77
2021/06/11 06:06:01;;;;;;;17.40;11.18;;;;;;;18.08;79.92;100572.13;5029958;28;20053;-77
2021/06/11 06:08:28;;;;;;;17.80;11.27;;;;;;;18.18;79.65;100570.31;5041567;28;20466;-76
2021/06/11 06:10:54;;;;;;;22.05;11.50;;;;;;;18.21;79.66;100570.06;5025169;28;20382;-74
2021/06/11 06:13:21;;;;;;;14.95;10.98;;;;;;;18.27;79.55;100576.78;5026397;28;20085;-71
2021/06/11 06:15:48;;;;;;;17.70;10.65;;;;;;;18.38;79.73;100574.00;5025060;28;20103;-69
2021/06/11 06:18:15;;;;;;;16.00;10.77;;;;;;;18.44;79.23;100575.31;5026350;28;20053;-73
2021/06/11 06:20:46;;;;;;;17.13;10.52;;;;;;;18.48;78.64;100575.88;5026073;28;20041;-73
2021/06/11 06:23:13;;;;;;;16.25;11.50;;;;;;;18.54;78.18;100581.63;5025228;28;20049;-74
2021/06/11 06:25:40;;;;;;;17.65;11.30;;;;;;;18.61;78.41;100592.75;5026678;28;20099;-74
2021/06/11 06:28:07;;;;;;;15.27;11.52;;;;;;;18.70;78.22;100585.66;5035464;28;20060;-73
2021/06/11 06:30:33;;;;;;;15.02;11.68;;;;;;;18.71;78.83;100590.06;5036893;28;20111;-72
2021/06/11 06:33:00;;;;;;;19.65;12.10;;;;;;;18.67;78.37;100591.31;5036385;28;20108;-72
2021/06/11 06:35:27;;;;;;;24.75;11.95;;;;;;;18.57;78.11;100573.22;5036631;28;20049;-78
2021/06/11 06:37:54;;;;;;;15.20;10.95;;;;;;;18.70;78.00;100588.38;5034070;28;20069;-74
2021/06/11 06:40:21;;;;;;;14.05;10.40;;;;;;;18.81;77.35;100590.97;5035550;28;20057;-77
2021/06/11 06:42:48;;;;;;;17.55;10.40;;;;;;;18.75;77.74;100599.63;5035758;28;20045;-80
2021/06/11 06:45:15;;;;;;;18.80;10.60;;;;;;;18.82;78.21;100595.38;5018075;28;20120;-78
2021/06/11 06:47:44;;;;;;;12.90;10.57;;;;;;;18.94;77.51;100595.25;5015063;28;20607;-77
2021/06/11 06:50:17;;;;;;;17.92;11.00;;;;;;;18.97;77.60;100597.72;5016397;28;20745;-75
2021/06/11 06:52:44;;;;;;;16.35;10.70;;;;;;;18.93;78.36;100596.25;5015815;28;20383;-77
2021/06/11 06:55:11;;;;;;;16.63;10.50;;;;;;;19.08;77.90;100596.78;5019816;28;20053;-74
2021/06/11 06:57:38;;;;;;;17.13;10.57;;;;;;;19.14;78.05;100602.47;5033623;28;20050;-78
2021/06/11 07:00:07;;;;;;;16.40;10.32;;;;;;;19.19;77.45;100601.19;5016556;28;20045;-73
2021/06/11 07:02:35;;;;;;;16.90;11.18;;;;;;;19.22;77.24;100598.19;5023348;28;20049;-74
2021/06/11 07:05:03;;;;;;;20.42;12.02;;;;;;;19.27;76.82;100590.53;5034366;28;20332;-74
2021/06/11 07:07:29;;;;;;;16.83;10.20;;;;;;;19.33;76.74;100584.56;5034465;28;20098;-74
2021/06/11 07:09:56;;;;;;;15.40;10.65;;;;;;;19.43;76.11;100586.44;5024390;28;20140;-72
2021/06/11 07:12:26;;;;;;;14.80;11.05;;;;;;;19.48;75.85;100587.72;5018406;28;20050;-76
2021/06/11 07:14:53;;;;;;;17.20;11.82;;;;;;;19.58;75.64;100587.72;5016340;28;20100;-76
2021/06/11 07:17:20;;;;;;;19.73;10.90;;;;;;;19.68;75.99;100588.56;5015708;28;20058;-75
2021/06/11 07:19:47;;;;;;;16.20;11.57;;;;;;;19.80;75.79;100597.41;5025596;28;20054;-72
2021/06/11 07:22:14;;;;;;;17.92;11.90;;;;;;;19.75;74.72;100593.41;5035434;28;20055;-75
2021/06/11 07:24:40;;;;;;;20.52;12.02;;;;;;;19.77;74.75;100586.00;5015687;28;20058;-76
2021/06/11 07:27:07;;;;;;;19.35;12.48;;;;;;;19.83;74.72;100590.00;5014745;28;20050;-74
2021/06/11 07:29:40;;;;;;;15.88;12.40;;;;;;;19.91;74.55;100588.28;5015838;28;20112;-76
2021/06/11 07:32:07;;;;;;;16.83;11.55;;;;;;;20.00;74.17;100585.72;5015521;28;20041;-71
2021/06/11 07:34:34;;;;;;;16.38;11.70;;;;;;;20.00;73.92;100589.28;5015482;28;20058;-74
2021/06/11 07:37:01;;;;;;;17.45;13.00;;;;;;;20.08;72.62;100594.84;5015594;28;20053;-74
2021/06/11 07:39:28;;;;;;;23.02;14.82;;;;;;;20.10;72.83;100594.66;5015597;28;20443;-71
2021/06/11 07:41:55;;;;;;;17.92;13.90;;;;;;;20.18;72.87;100594.81;5015606;28;20111;-71
2021/06/11 07:44:22;;;;;;;23.23;14.02;;;;;;;20.19;72.11;100588.41;5024211;28;20046;-74
2021/06/11 07:46:51;;;;;;;27.92;14.35;;;;;;;20.19;72.22;100582.09;5024724;28;20054;-74
2021/06/11 07:49:17;;;;;;;18.83;14.05;;;;;;;20.30;71.19;100590.06;5025821;28;20057;-75
2021/06/11 07:51:44;;;;;;;21.15;14.82;;;;;;;20.35;71.60;100600.47;5022471;28;20045;-73
2021/06/11 07:54:11;;;;;;;18.92;14.00;;;;;;;20.41;70.51;100591.75;5024041;28;20042;-74
2021/06/11 07:56:38;;;;;;;23.40;13.88;;;;;;;20.48;70.40;100602.84;5021968;28;20414;-73
2021/06/11 07:59:05;;;;;;;18.35;12.05;;;;;;;20.58;71.08;100614.53;5025696;28;20103;-74
2021/06/11 08:01:33;;;;;;;21.15;12.43;;;;;;;20.63;71.11;100611.38;5025864;28;20339;-76
2021/06/11 08:04:01;;;;;;;19.33;12.43;;;;;;;20.67;69.78;100609.22;5022630;28;20137;-78
2021/06/11 08:06:27;;;;;;;24.45;13.23;;;;;;;20.69;70.51;100610.78;5028338;28;20092;-73
2021/06/11 08:08:54;;;;;;;22.85;12.02;;;;;;;20.75;70.33;100610.19;5022566;28;20053;-73
2021/06/11 08:11:21;;;;;;;17.95;10.95;;;;;;;20.81;70.35;100610.59;5022876;28;20103;-74
2021/06/11 08:13:47;;;;;;;16.33;11.43;;;;;;;20.84;69.92;100613.88;5024393;28;20394;-77
2021/06/11 08:16:14;;;;;;;19.45;11.82;;;;;;;20.76;69.77;100617.31;5024551;28;20050;-73
2021/06/11 08:18:41;;;;;;;19.80;11.50;;;;;;;20.82;69.98;100610.44;5025173;28;20041;-73
2021/06/11 08:21:08;;;;;;;20.98;11.85;;;;;;;20.88;70.06;100612.56;5023978;28;20084;-74
2021/06/11 08:23:34;;;;;;;18.63;11.05;;;;;;;20.93;69.26;100609.41;5024807;28;20050;-75
2021/06/11 08:26:01;;;;;;;19.77;10.63;;;;;;;20.95;69.09;100607.41;5023625;28;20084;-74
2021/06/11 08:28:28;;;;;;;18.67;11.10;;;;;;;20.98;69.04;100615.22;5037950;28;20042;-73
2021/06/11 08:30:55;;;;;;;21.60;11.07;;;;;;;21.06;68.09;100614.47;5026464;28;20042;-74
2021/06/11 08:33:23;;;;;;;18.52;11.45;;;;;;;21.13;67.84;100620.19;5027113;28;20744;-75
2021/06/11 08:35:50;;;;;;;21.63;11.95;;;;;;;21.13;66.73;100615.59;5029047;28;20096;-74
2021/06/11 08:38:17;;;;;;;15.63;10.77;;;;;;;21.16;68.01;100614.44;5029062;28;20050;-75
2021/06/11 08:40:44;;;;;;;17.83;11.80;;;;;;;21.28;66.65;100612.34;5027357;28;20042;-76
2021/06/11 08:43:14;;;;;;;16.83;11.45;;;;;;;21.32;67.01;100618.31;5028378;28;20087;-80
2021/06/11 08:45:42;;;;;;;15.57;9.73;;;;;;;21.51;67.51;100612.75;5029705;28;20057;-75
2021/06/11 08:48:10;;;;;;;13.80;10.35;;;;;;;21.57;66.66;100606.72;5027963;28;20287;-75
2021/06/11 08:50:41;;;;;;;15.27;11.40;;;;;;;21.64;66.00;100606.09;5026467;28;20148;-73
2021/06/11 08:53:11;;;;;;;16.30;11.00;;;;;;;21.66;65.77;100604.06;5025427;28;20121;-74
2021/06/11 08:55:38;;;;;;;16.05;10.70;;;;;;;21.73;66.23;100612.50;5038425;28;20493;-73
2021/06/11 08:58:05;;;;;;;15.32;9.40;;;;;;;21.87;66.15;100611.94;5026954;28;20128;-75
2021/06/11 09:00:32;;;;;;;15.05;10.50;;;;;;;21.86;65.25;100612.09;5028211;28;20091;-76
2021/06/11 09:03:06;;;;;;;17.95;9.93;;;;;;;21.97;65.67;100611.84;5028855;28;20056;-72
2021/06/11 09:05:34;;;;;;;14.93;10.90;;;;;;;21.99;64.78;100615.25;5028876;28;20129;-73
2021/06/11 09:08:22;;;;;;;18.13;11.65;;;;;;;21.97;64.24;100609.13;5025372;28;20056;-73
2021/06/11 09:10:52;;;;;;;17.95;10.50;;;;;;;22.15;65.13;100625.41;5029562;28;20050;-75
2021/06/11 09:13:21;;;;;;;18.37;11.53;;;;;;;22.13;63.76;100622.00;5025752;28;20506;-72
2021/06/11 09:15:50;;;;;;;21.30;11.90;;;;;;;22.24;63.89;100620.88;5029138;28;20103;-72
2021/06/11 09:18:29;;;;;;;21.37;12.40;;;;;;;22.28;63.90;100624.13;5028213;28;20054;-75
2021/06/11 09:20:56;;;;;;;22.77;11.55;;;;;;;22.36;64.20;100622.31;5022015;28;20120;-74
2021/06/11 09:23:24;;;;;;;22.30;11.32;;;;;;;22.57;63.80;100623.84;5026017;28;20061;-75
2021/06/11 09:25:51;;;;;;;22.88;10.73;;;;;;;22.65;62.70;100621.16;5027514;28;20099;-75
2021/06/11 09:28:24;;;;;;;21.40;11.02;;;;;;;22.68;62.88;100609.09;5026834;28;20167;-76
2021/06/11 09:30:56;;;;;;;17.17;10.00;;;;;;;22.74;62.37;100607.59;5029623;28;20045;-78
2021/06/11 09:33:24;;;;;;;20.55;9.43;;;;;;;22.97;62.07;100623.31;5024760;28;20347;-75
2021/06/11 09:36:00;;;;;;;18.55;10.88;;;;;;;22.96;60.41;100622.47;5025702;28;20335;-77
2021/06/11 09:38:29;;;;;;;17.20;11.43;;;;;;;23.06;59.78;100614.19;5028548;28;20103;-77
2021/06/11 09:40:59;;;;;;;15.82;9.90;;;;;;;23.10;60.12;100618.25;5027672;28;20165;-76
2021/06/11 09:43:27;;;;;;;22.73;9.48;;;;;;;23.40;61.25;100620.59;5024135;28;20496;-76
2021/06/11 09:46:12;;;;;;;13.73;9.25;;;;;;;23.13;60.08;100615.22;5025181;28;20056;-75
2021/06/11 09:48:45;;;;;;;17.00;8.27;;;;;;;23.04;61.10;100613.50;5028314;28;20049;-77
2021/06/11 09:51:13;;;;;;;11.73;7.60;;;;;;;22.93;60.71;100615.50;5028159;28;20055;-75
2021/06/11 09:53:40;;;;;;;11.75;7.50;;;;;;;22.79;60.92;100618.84;5025601;28;20053;-77
2021/06/11 09:56:18;;;;;;;20.00;7.65;;;;;;;23.13;60.80;100612.50;5019912;28;20053;-74
2021/06/11 09:58:45;;;;;;;17.15;8.70;;;;;;;23.42;59.10;100600.34;5017137;28;20049;-76
2021/06/11 10:01:12;;;;;;;17.08;8.10;;;;;;;23.72;59.76;100602.59;5036831;28;20102;-76
2021/06/11 10:03:42;;;;;;;12.65;9.23;;;;;;;23.76;58.96;100603.97;5035357;28;20058;-75
2021/06/11 10:06:14;;;;;;;15.85;8.63;;;;;;;23.68;58.87;100603.94;5036902;28;20442;-74
2021/06/11 10:08:44;;;;;;;11.82;7.30;;;;;;;23.86;59.21;100601.91;5035916;28;20049;-73
2021/06/11 10:11:14;;;;;;;15.30;7.47;;;;;;;23.74;58.51;100604.13;5037113;28;20122;-75
2021/06/11 10:13:42;;;;;;;10.50;7.53;;;;;;;23.53;59.13;100606.50;5036160;28;20049;-75
2021/06/11 10:16:14;;;;;;;15.70;7.68;;;;;;;23.41;59.14;100619.56;5036878;28;20049;-73
2021/06/11 10:18:41;;;;;;;11.50;7.85;;;;;;;23.61;58.85;100614.69;5036855;28;20060;-75
2021/06/11 10:21:09;;;;;;;15.18;8.55;;;;;;;23.98;57.21;100605.13;5035901;28;20111;-76
2021/06/11 10:23:37;;;;;;;11.13;7.30;;;;;;;24.18;56.88;100615.72;5036656;28;20103;-74
2021/06/11 10:26:07;;;;;;;8.43;5.85;;;;;;;23.89;56.92;100603.44;5035370;28;20053;-73
2021/06/11 10:28:39;;;;;;;12.10;6.30;;;;;;;23.91;57.46;100609.56;5035935;28;20050;-74
2021/06/11 10:31:19;;;;;;;14.05;7.00;;;;;;;24.13;56.86;100607.22;5036413;28;20362;-74
2021/06/11 10:33:46;;;;;;;10.20;7.83;;;;;;;24.36;55.91;100606.50;5036396;28;20091;-74
2021/06/11 10:36:36;;;;;;;12.55;7.20;;;;;;;24.63;56.42;100597.03;5036616;28;20313;-74
2021/06/11 10:39:09;;;;;;;;;;;;;;;24.52;56.17;100590.06;5036302;28;20111;-75
2021/06/11 10:42:02;;;;;;;9.57;6.85;;;;;;;24.51;55.43;100598.44;5036637;28;19925;-74
2021/06/11 10:44:35;;;;;;;10.23;5.80;;;;;;;24.52;55.29;100600.16;5036455;28;20119;-75
2021/06/11 10:47:17;;;;;;;7.82;5.90;;;;;;;24.27;55.11;100597.47;5036188;28;20132;-75
2021/06/11 10:49:56;;;;;;;7.47;4.60;;;;;;;24.69;56.03;100582.69;5035845;28;20060;-74
2021/06/11 10:52:43;;;;;;;8.88;5.95;;;;;;;25.16;54.26;100585.56;5036207;28;20111;-75
2021/06/11 10:55:35;;;;;;;11.75;5.97;;;;;;;24.87;53.95;100573.44;5035163;28;20439;-76
2021/06/11 10:58:02;;;;;;;11.93;6.78;;;;;;;24.48;54.77;100586.00;5035245;28;20057;-74
2021/06/11 11:00:40;;;;;;;8.05;5.43;;;;;;;24.47;56.11;100589.78;5035878;28;20133;-75
2021/06/11 11:03:09;;;;;;;8.30;6.18;;;;;;;24.71;54.08;100587.13;5036123;28;20077;-74
2021/06/11 11:05:41;;;;;;;8.65;5.65;;;;;;;24.74;54.05;100581.31;5035903;28;20077;-74
2021/06/11 11:08:11;;;;;;;16.35;6.53;;;;;;;24.66;54.51;100579.44;5035282;28;20045;-76
2021/06/11 11:11:23;;;;;;;11.63;6.28;;;;;;;24.71;54.06;100582.50;5034333;28;20049;-75
2021/06/11 11:13:50;;;;;;;6.57;4.72;;;;;;;25.12;54.03;100578.78;5035867;28;20072;-73
2021/06/11 11:16:22;;;;;;;8.98;5.50;;;;;;;25.12;51.92;100580.63;5035171;28;20099;-76
2021/06/11 11:18:49;;;;;;;9.30;4.38;;;;;;;25.35;52.61;100588.88;5035946;28;20053;-74
2021/06/11 11:21:25;;;;;;;7.90;5.18;;;;;;;25.38;52.43;100587.66;5034784;28;20446;-77
2021/06/11 11:23:54;;;;;;;8.02;6.00;;;;;;;25.46;51.33;100582.13;5035855;28;20057;-75